sensor_id;sensor_type;location;lat;lon;timestamp;pressure;altitude;pressure_sealevel;temperature;humidity
56825;BME280;42705;50.326;18.772;2023-08-20T00:03:13;98813.36;;;24.66;61.45
56825;BME280;42705;50.326;18.772;2023-08-20T00:08:34;98813.05;;;24.65;61.68
56825;BME280;42705;50.326;18.772;2023-08-20T00:13:56;98816.46;;;24.61;61.68
56825;BME280;42705;50.326;18.772;2023-08-20T00:19:18;98811.67;;;24.54;61.91
56825;BME280;42705;50.326;18.772;2023-08-20T00:24:40;98805.27;;;24.49;61.96
56825;BME280;42705;50.326;18.772;2023-08-20T00:30:01;98802.40;;;24.39;62.05
56825;BME280;42705;50.326;18.772;2023-08-20T00:35:22;98801.73;;;24.24;62.22
56825;BME280;42705;50.326;18.772;2023-08-20T00:40:43;98802.48;;;24.08;62.57
56825;BME280;42705;50.326;18.772;2023-08-20T00:46:05;98800.62;;;23.99;62.81
56825;BME280;42705;50.326;18.772;2023-08-20T00:51:28;98799.92;;;23.97;63.17
56825;BME280;42705;50.326;18.772;2023-08-20T00:56:50;98800.75;;;23.96;63.31
56825;BME280;42705;50.326;18.772;2023-08-20T01:02:12;98799.23;;;23.91;63.53
56825;BME280;42705;50.326;18.772;2023-08-20T01:13:20;98797.04;;;23.82;63.70
56825;BME280;42705;50.326;18.772;2023-08-20T01:18:42;98797.13;;;23.73;63.88
56825;BME280;42705;50.326;18.772;2023-08-20T01:24:33;98795.33;;;23.64;64.01
56825;BME280;42705;50.326;18.772;2023-08-20T01:30:01;98800.39;;;23.52;64.36
56825;BME280;42705;50.326;18.772;2023-08-20T01:35:25;98804.11;;;23.37;64.62
56825;BME280;42705;50.326;18.772;2023-08-20T01:40:57;98801.98;;;23.22;64.87
56825;BME280;42705;50.326;18.772;2023-08-20T01:46:18;98804.31;;;23.18;65.24
56825;BME280;42705;50.326;18.772;2023-08-20T01:51:39;98804.09;;;23.21;65.51
56825;BME280;42705;50.326;18.772;2023-08-20T01:57:01;98800.16;;;23.20;65.55
56825;BME280;42705;50.326;18.772;2023-08-20T02:02:22;98799.52;;;23.16;65.65
56825;BME280;42705;50.326;18.772;2023-08-20T02:07:43;98801.36;;;23.09;65.82
56825;BME280;42705;50.326;18.772;2023-08-20T02:13:04;98803.04;;;23.02;66.02
56825;BME280;42705;50.326;18.772;2023-08-20T02:18:26;98805.67;;;22.91;66.18
56825;BME280;42705;50.326;18.772;2023-08-20T02:23:48;98808.39;;;22.82;66.41
56825;BME280;42705;50.326;18.772;2023-08-20T02:29:10;98811.55;;;22.80;66.55
56825;BME280;42705;50.326;18.772;2023-08-20T02:34:31;98814.89;;;22.79;66.68
56825;BME280;42705;50.326;18.772;2023-08-20T02:39:52;98814.03;;;22.77;66.80
56825;BME280;42705;50.326;18.772;2023-08-20T02:45:13;98813.55;;;22.85;66.81
56825;BME280;42705;50.326;18.772;2023-08-20T02:50:34;98814.48;;;22.87;66.82
56825;BME280;42705;50.326;18.772;2023-08-20T02:55:55;98814.14;;;22.90;66.83
56825;BME280;42705;50.326;18.772;2023-08-20T03:01:23;98817.92;;;22.93;66.83
56825;BME280;42705;50.326;18.772;2023-08-20T03:06:45;98822.93;;;22.89;66.82
56825;BME280;42705;50.326;18.772;2023-08-20T03:12:07;98825.83;;;22.86;66.98
56825;BME280;42705;50.326;18.772;2023-08-20T03:17:28;98825.39;;;22.84;66.93
56825;BME280;42705;50.326;18.772;2023-08-20T03:22:50;98826.85;;;22.86;67.11
56825;BME280;42705;50.326;18.772;2023-08-20T03:28:11;98829.92;;;22.90;67.15
56825;BME280;42705;50.326;18.772;2023-08-20T03:33:32;98828.30;;;22.95;67.05
56825;BME280;42705;50.326;18.772;2023-08-20T03:38:54;98825.52;;;23.01;67.02
56825;BME280;42705;50.326;18.772;2023-08-20T03:44:16;98819.06;;;23.04;66.92
56825;BME280;42705;50.326;18.772;2023-08-20T03:49:38;98823.72;;;23.09;66.75
56825;BME280;42705;50.326;18.772;2023-08-20T03:54:59;98830.40;;;23.15;66.77
56825;BME280;42705;50.326;18.772;2023-08-20T04:00:20;98836.14;;;23.18;66.58
56825;BME280;42705;50.326;18.772;2023-08-20T04:05:42;98836.94;;;23.21;66.48
56825;BME280;42705;50.326;18.772;2023-08-20T04:11:03;98839.36;;;23.25;66.38
56825;BME280;42705;50.326;18.772;2023-08-20T04:16:24;98842.77;;;23.25;66.29
56825;BME280;42705;50.326;18.772;2023-08-20T04:21:46;98845.45;;;23.25;66.14
56825;BME280;42705;50.326;18.772;2023-08-20T04:27:07;98847.29;;;23.27;66.11
56825;BME280;42705;50.326;18.772;2023-08-20T04:32:29;98851.65;;;23.28;66.15
56825;BME280;42705;50.326;18.772;2023-08-20T04:37:50;98857.28;;;23.28;66.16
56825;BME280;42705;50.326;18.772;2023-08-20T04:43:11;98867.92;;;23.32;66.10
56825;BME280;42705;50.326;18.772;2023-08-20T04:48:33;98864.96;;;23.31;66.00
56825;BME280;42705;50.326;18.772;2023-08-20T04:53:55;98871.58;;;23.32;66.09
56825;BME280;42705;50.326;18.772;2023-08-20T04:59:16;98866.42;;;23.35;66.08
56825;BME280;42705;50.326;18.772;2023-08-20T05:05:04;98868.23;;;23.42;66.14
56825;BME280;42705;50.326;18.772;2023-08-20T05:10:26;98869.06;;;23.50;65.99
56825;BME280;42705;50.326;18.772;2023-08-20T05:15:47;98869.48;;;23.60;65.91
56825;BME280;42705;50.326;18.772;2023-08-20T05:21:08;98871.95;;;23.73;65.75
56825;BME280;42705;50.326;18.772;2023-08-20T05:26:34;98881.16;;;23.80;65.54
56825;BME280;42705;50.326;18.772;2023-08-20T05:31:56;98882.65;;;23.88;65.26
56825;BME280;42705;50.326;18.772;2023-08-20T05:37:19;98884.31;;;23.96;65.24
56825;BME280;42705;50.326;18.772;2023-08-20T05:42:40;98887.20;;;24.06;65.08
56825;BME280;42705;50.326;18.772;2023-08-20T05:48:02;98892.59;;;24.16;64.82
56825;BME280;42705;50.326;18.772;2023-08-20T05:53:23;98894.68;;;24.26;64.63
56825;BME280;42705;50.326;18.772;2023-08-20T05:58:45;98895.45;;;24.29;64.38
56825;BME280;42705;50.326;18.772;2023-08-20T06:04:06;98901.95;;;24.33;64.55
56825;BME280;42705;50.326;18.772;2023-08-20T06:09:27;98897.02;;;24.32;64.26
56825;BME280;42705;50.326;18.772;2023-08-20T06:14:49;98894.58;;;24.34;64.31
56825;BME280;42705;50.326;18.772;2023-08-20T06:20:11;98895.58;;;24.38;64.30
56825;BME280;42705;50.326;18.772;2023-08-20T06:25:32;98895.39;;;24.49;64.16
56825;BME280;42705;50.326;18.772;2023-08-20T06:30:53;98894.02;;;24.59;64.01
56825;BME280;42705;50.326;18.772;2023-08-20T06:36:14;98898.36;;;24.66;63.94
56825;BME280;42705;50.326;18.772;2023-08-20T06:41:36;98897.98;;;24.75;63.71
56825;BME280;42705;50.326;18.772;2023-08-20T06:46:57;98902.93;;;24.81;63.68
56825;BME280;42705;50.326;18.772;2023-08-20T06:52:18;98902.11;;;24.89;63.67
56825;BME280;42705;50.326;18.772;2023-08-20T06:57:39;98904.50;;;24.99;63.54
56825;BME280;42705;50.326;18.772;2023-08-20T07:03:00;98907.41;;;25.11;63.43
56825;BME280;42705;50.326;18.772;2023-08-20T07:08:21;98911.95;;;25.20;63.05
56825;BME280;42705;50.326;18.772;2023-08-20T07:13:43;98913.06;;;25.25;62.82
56825;BME280;42705;50.326;18.772;2023-08-20T07:19:04;98914.20;;;25.30;62.88
56825;BME280;42705;50.326;18.772;2023-08-20T07:24:25;98916.83;;;25.41;62.76
56825;BME280;42705;50.326;18.772;2023-08-20T07:29:46;98922.06;;;25.53;62.56
56825;BME280;42705;50.326;18.772;2023-08-20T07:35:08;98920.77;;;25.61;62.47
56825;BME280;42705;50.326;18.772;2023-08-20T07:40:29;98919.35;;;25.68;62.26
56825;BME280;42705;50.326;18.772;2023-08-20T07:45:50;98918.89;;;25.74;62.25
56825;BME280;42705;50.326;18.772;2023-08-20T07:51:11;98919.51;;;25.83;62.12
56825;BME280;42705;50.326;18.772;2023-08-20T07:56:32;98921.80;;;25.96;62.06
56825;BME280;42705;50.326;18.772;2023-08-20T08:01:54;98927.74;;;26.04;61.66
56825;BME280;42705;50.326;18.772;2023-08-20T08:07:15;98930.60;;;26.11;61.74
56825;BME280;42705;50.326;18.772;2023-08-20T08:12:36;98934.46;;;26.15;61.21
56825;BME280;42705;50.326;18.772;2023-08-20T08:17:57;98935.72;;;26.19;60.50
56825;BME280;42705;50.326;18.772;2023-08-20T08:23:18;98933.81;;;26.22;60.50
56825;BME280;42705;50.326;18.772;2023-08-20T08:28:39;98937.37;;;26.27;60.59
56825;BME280;42705;50.326;18.772;2023-08-20T08:34:01;98935.37;;;26.38;60.58
56825;BME280;42705;50.326;18.772;2023-08-20T08:39:24;98939.83;;;26.52;60.35
56825;BME280;42705;50.326;18.772;2023-08-20T08:44:45;98932.73;;;26.64;60.07
56825;BME280;42705;50.326;18.772;2023-08-20T08:50:07;98935.45;;;26.75;59.63
56825;BME280;42705;50.326;18.772;2023-08-20T08:55:29;98938.49;;;26.83;59.25
56825;BME280;42705;50.326;18.772;2023-08-20T09:00:51;98936.27;;;26.92;59.13
56825;BME280;42705;50.326;18.772;2023-08-20T09:06:12;98942.16;;;27.00;58.97
56825;BME280;42705;50.326;18.772;2023-08-20T09:11:36;98942.05;;;27.08;58.54
56825;BME280;42705;50.326;18.772;2023-08-20T09:16:59;98939.27;;;27.17;58.28
56825;BME280;42705;50.326;18.772;2023-08-20T09:22:21;98940.02;;;27.25;57.50
56825;BME280;42705;50.326;18.772;2023-08-20T09:27:43;98939.22;;;27.36;57.19
56825;BME280;42705;50.326;18.772;2023-08-20T09:33:06;98938.14;;;27.49;56.87
56825;BME280;42705;50.326;18.772;2023-08-20T09:38:28;98938.45;;;27.62;56.69
56825;BME280;42705;50.326;18.772;2023-08-20T09:43:54;98940.57;;;27.78;56.31
56825;BME280;42705;50.326;18.772;2023-08-20T09:49:17;98944.74;;;27.91;55.27
56825;BME280;42705;50.326;18.772;2023-08-20T09:55:03;98940.19;;;28.05;54.27
56825;BME280;42705;50.326;18.772;2023-08-20T10:00:27;98938.36;;;28.20;53.33
56825;BME280;42705;50.326;18.772;2023-08-20T10:05:50;98934.57;;;28.32;53.02
56825;BME280;42705;50.326;18.772;2023-08-20T10:11:11;98934.15;;;28.44;52.71
56825;BME280;42705;50.326;18.772;2023-08-20T10:16:33;98938.55;;;28.57;52.04
56825;BME280;42705;50.326;18.772;2023-08-20T10:21:56;98935.88;;;28.70;51.29
56825;BME280;42705;50.326;18.772;2023-08-20T10:27:27;98932.77;;;28.85;50.97
56825;BME280;42705;50.326;18.772;2023-08-20T10:32:51;98933.67;;;28.96;50.26
56825;BME280;42705;50.326;18.772;2023-08-20T10:38:14;98932.15;;;29.11;49.68
56825;BME280;42705;50.326;18.772;2023-08-20T10:43:40;98934.76;;;29.28;49.32
56825;BME280;42705;50.326;18.772;2023-08-20T10:49:02;98923.80;;;29.44;48.39
56825;BME280;42705;50.326;18.772;2023-08-20T10:54:24;98921.80;;;29.63;48.09
56825;BME280;42705;50.326;18.772;2023-08-20T10:59:47;98920.40;;;29.87;47.86
56825;BME280;42705;50.326;18.772;2023-08-20T11:05:17;98912.66;;;30.15;47.60
56825;BME280;42705;50.326;18.772;2023-08-20T11:10:39;98912.40;;;30.38;47.00
56825;BME280;42705;50.326;18.772;2023-08-20T11:16:02;98908.16;;;30.51;46.84
56825;BME280;42705;50.326;18.772;2023-08-20T11:21:23;98910.25;;;30.70;46.21
56825;BME280;42705;50.326;18.772;2023-08-20T11:26:44;98899.77;;;30.82;45.62
56825;BME280;42705;50.326;18.772;2023-08-20T11:32:06;98900.27;;;30.99;45.52
56825;BME280;42705;50.326;18.772;2023-08-20T11:37:27;98903.40;;;31.20;44.95
56825;BME280;42705;50.326;18.772;2023-08-20T11:42:48;98899.52;;;31.42;44.51
56825;BME280;42705;50.326;18.772;2023-08-20T11:48:09;98903.02;;;31.58;44.24
56825;BME280;42705;50.326;18.772;2023-08-20T11:53:30;98894.59;;;31.71;43.63
56825;BME280;42705;50.326;18.772;2023-08-20T11:58:52;98894.63;;;31.92;42.89
56825;BME280;42705;50.326;18.772;2023-08-20T12:04:13;98889.52;;;32.13;42.26
56825;BME280;42705;50.326;18.772;2023-08-20T12:09:34;98885.72;;;32.41;41.93
56825;BME280;42705;50.326;18.772;2023-08-20T12:14:56;98892.09;;;32.74;41.18
56825;BME280;42705;50.326;18.772;2023-08-20T12:20:17;98893.10;;;32.78;40.32
56825;BME280;42705;50.326;18.772;2023-08-20T12:25:38;98893.84;;;32.90;39.81
56825;BME280;42705;50.326;18.772;2023-08-20T12:31:00;98896.27;;;33.07;39.26
56825;BME280;42705;50.326;18.772;2023-08-20T12:36:21;98891.11;;;33.28;38.96
56825;BME280;42705;50.326;18.772;2023-08-20T12:41:43;98884.98;;;33.51;38.34
56825;BME280;42705;50.326;18.772;2023-08-20T12:47:04;98884.36;;;33.77;37.86
56825;BME280;42705;50.326;18.772;2023-08-20T12:52:25;98880.05;;;34.20;37.20
56825;BME280;42705;50.326;18.772;2023-08-20T12:57:55;98876.40;;;34.65;36.75
56825;BME280;42705;50.326;18.772;2023-08-20T13:03:18;98878.19;;;35.35;35.74
56825;BME280;42705;50.326;18.772;2023-08-20T13:08:40;98868.51;;;37.38;34.29
56825;BME280;42705;50.326;18.772;2023-08-20T13:14:03;98862.34;;;41.67;30.39
56825;BME280;42705;50.326;18.772;2023-08-20T13:19:24;98860.34;;;45.06;26.78
56825;BME280;42705;50.326;18.772;2023-08-20T13:24:45;98856.84;;;47.93;24.06
56825;BME280;42705;50.326;18.772;2023-08-20T13:30:08;98857.88;;;50.69;21.66
56825;BME280;42705;50.326;18.772;2023-08-20T13:35:30;98853.62;;;53.10;19.38
56825;BME280;42705;50.326;18.772;2023-08-20T13:40:51;98850.77;;;55.07;17.63
56825;BME280;42705;50.326;18.772;2023-08-20T13:46:12;98850.30;;;57.12;16.06
56825;BME280;42705;50.326;18.772;2023-08-20T13:51:33;98845.64;;;58.69;14.81
56825;BME280;42705;50.326;18.772;2023-08-20T13:56:54;98840.40;;;59.60;13.78
56825;BME280;42705;50.326;18.772;2023-08-20T14:02:15;98833.72;;;60.24;13.08
56825;BME280;42705;50.326;18.772;2023-08-20T14:07:37;98827.41;;;60.53;12.40
56825;BME280;42705;50.326;18.772;2023-08-20T14:12:58;98825.41;;;60.50;11.79
56825;BME280;42705;50.326;18.772;2023-08-20T14:18:19;98821.43;;;59.95;11.71
56825;BME280;42705;50.326;18.772;2023-08-20T14:23:40;98814.27;;;59.78;11.72
56825;BME280;42705;50.326;18.772;2023-08-20T14:29:01;98805.67;;;59.59;11.47
56825;BME280;42705;50.326;18.772;2023-08-20T14:34:22;98795.13;;;58.76;11.34
56825;BME280;42705;50.326;18.772;2023-08-20T14:39:44;98786.08;;;58.40;11.42
56825;BME280;42705;50.326;18.772;2023-08-20T14:45:05;98782.17;;;58.37;11.40
56825;BME280;42705;50.326;18.772;2023-08-20T14:50:26;98777.82;;;57.66;11.51
56825;BME280;42705;50.326;18.772;2023-08-20T14:55:48;98773.86;;;56.81;11.78
56825;BME280;42705;50.326;18.772;2023-08-20T15:01:09;98776.20;;;55.76;12.24
56825;BME280;42705;50.326;18.772;2023-08-20T15:06:30;98776.66;;;55.07;12.67
56825;BME280;42705;50.326;18.772;2023-08-20T15:11:52;98769.56;;;54.58;12.99
56825;BME280;42705;50.326;18.772;2023-08-20T15:17:13;98768.06;;;54.20;12.94
56825;BME280;42705;50.326;18.772;2023-08-20T15:22:34;98765.71;;;53.82;13.18
56825;BME280;42705;50.326;18.772;2023-08-20T15:27:55;98760.69;;;53.42;13.40
56825;BME280;42705;50.326;18.772;2023-08-20T15:33:16;98760.95;;;52.97;13.67
56825;BME280;42705;50.326;18.772;2023-08-20T15:38:38;98756.64;;;52.74;13.83
56825;BME280;42705;50.326;18.772;2023-08-20T15:44:01;98752.23;;;52.34;13.93
56825;BME280;42705;50.326;18.772;2023-08-20T15:49:22;98752.58;;;51.56;14.26
56825;BME280;42705;50.326;18.772;2023-08-20T15:54:44;98752.21;;;50.91;14.65
56825;BME280;42705;50.326;18.772;2023-08-20T16:00:06;98752.83;;;50.42;15.15
56825;BME280;42705;50.326;18.772;2023-08-20T16:05:37;98748.13;;;49.91;15.31
56825;BME280;42705;50.326;18.772;2023-08-20T16:10:58;98742.62;;;49.23;15.58
56825;BME280;42705;50.326;18.772;2023-08-20T16:16:19;98744.05;;;48.70;15.92
56825;BME280;42705;50.326;18.772;2023-08-20T16:21:41;98748.35;;;48.25;16.54
56825;BME280;42705;50.326;18.772;2023-08-20T16:27:02;98744.05;;;47.78;17.14
56825;BME280;42705;50.326;18.772;2023-08-20T16:32:24;98745.50;;;47.28;17.33
56825;BME280;42705;50.326;18.772;2023-08-20T16:37:45;98753.17;;;46.79;17.79
56825;BME280;42705;50.326;18.772;2023-08-20T16:43:06;98754.53;;;46.26;18.33
56825;BME280;42705;50.326;18.772;2023-08-20T16:48:28;98759.90;;;45.70;18.85
56825;BME280;42705;50.326;18.772;2023-08-20T16:53:52;98756.52;;;45.18;19.45
56825;BME280;42705;50.326;18.772;2023-08-20T16:59:14;98756.75;;;44.56;19.96
56825;BME280;42705;50.326;18.772;2023-08-20T17:04:35;98761.73;;;43.70;20.58
56825;BME280;42705;50.326;18.772;2023-08-20T17:09:57;98764.83;;;42.60;21.42
56825;BME280;42705;50.326;18.772;2023-08-20T17:15:18;98767.27;;;41.53;22.37
56825;BME280;42705;50.326;18.772;2023-08-20T17:20:42;98773.04;;;40.48;23.58
56825;BME280;42705;50.326;18.772;2023-08-20T17:26:03;98782.77;;;39.52;24.38
56825;BME280;42705;50.326;18.772;2023-08-20T17:31:24;98789.50;;;38.56;25.41
56825;BME280;42705;50.326;18.772;2023-08-20T17:36:46;98792.88;;;37.73;26.35
56825;BME280;42705;50.326;18.772;2023-08-20T17:42:07;98797.33;;;36.89;27.31
56825;BME280;42705;50.326;18.772;2023-08-20T17:47:28;98796.68;;;36.01;28.62
56825;BME280;42705;50.326;18.772;2023-08-20T17:52:49;98800.38;;;35.24;29.60
56825;BME280;42705;50.326;18.772;2023-08-20T17:58:10;98793.64;;;34.48;30.56
56825;BME280;42705;50.326;18.772;2023-08-20T18:03:31;98797.02;;;33.83;31.72
56825;BME280;42705;50.326;18.772;2023-08-20T18:08:53;98799.18;;;33.27;32.66
56825;BME280;42705;50.326;18.772;2023-08-20T18:14:14;98802.36;;;32.80;33.44
56825;BME280;42705;50.326;18.772;2023-08-20T18:19:36;98811.64;;;32.32;34.10
56825;BME280;42705;50.326;18.772;2023-08-20T18:24:57;98816.52;;;31.90;34.95
56825;BME280;42705;50.326;18.772;2023-08-20T18:30:18;98821.21;;;31.59;35.95
56825;BME280;42705;50.326;18.772;2023-08-20T18:35:40;98826.48;;;31.32;36.52
56825;BME280;42705;50.326;18.772;2023-08-20T18:41:01;98830.58;;;31.04;37.20
56825;BME280;42705;50.326;18.772;2023-08-20T18:46:24;98842.54;;;30.78;37.69
56825;BME280;42705;50.326;18.772;2023-08-20T18:51:45;98846.88;;;30.51;38.51
56825;BME280;42705;50.326;18.772;2023-08-20T18:57:06;98858.23;;;30.27;39.05
56825;BME280;42705;50.326;18.772;2023-08-20T19:02:30;98862.76;;;30.03;39.82
56825;BME280;42705;50.326;18.772;2023-08-20T19:07:53;98860.49;;;29.85;40.19
56825;BME280;42705;50.326;18.772;2023-08-20T19:13:14;98859.80;;;29.67;40.58
56825;BME280;42705;50.326;18.772;2023-08-20T19:18:35;98859.31;;;29.55;41.13
56825;BME280;42705;50.326;18.772;2023-08-20T19:23:58;98869.17;;;29.42;41.33
56825;BME280;42705;50.326;18.772;2023-08-20T19:29:21;98877.20;;;29.29;41.69
56825;BME280;42705;50.326;18.772;2023-08-20T19:34:42;98886.66;;;29.14;42.20
56825;BME280;42705;50.326;18.772;2023-08-20T19:40:04;98895.36;;;28.99;42.79
56825;BME280;42705;50.326;18.772;2023-08-20T19:45:29;98904.12;;;28.84;43.37
56825;BME280;42705;50.326;18.772;2023-08-20T19:50:52;98904.50;;;28.70;43.61
56825;BME280;42705;50.326;18.772;2023-08-20T19:56:15;98913.34;;;28.55;44.05
56825;BME280;42705;50.326;18.772;2023-08-20T20:01:50;98908.90;;;28.42;44.36
56825;BME280;42705;50.326;18.772;2023-08-20T20:07:12;98909.93;;;28.31;44.79
56825;BME280;42705;50.326;18.772;2023-08-20T20:12:34;98908.59;;;28.24;45.11
56825;BME280;42705;50.326;18.772;2023-08-20T20:17:55;98910.28;;;28.19;45.55
56825;BME280;42705;50.326;18.772;2023-08-20T20:23:17;98910.30;;;28.11;46.48
56825;BME280;42705;50.326;18.772;2023-08-20T20:28:38;98913.16;;;28.03;46.93
56825;BME280;42705;50.326;18.772;2023-08-20T20:34:00;98915.54;;;27.93;47.12
56825;BME280;42705;50.326;18.772;2023-08-20T20:39:21;98920.74;;;27.83;47.49
56825;BME280;42705;50.326;18.772;2023-08-20T20:44:42;98923.54;;;27.73;47.92
56825;BME280;42705;50.326;18.772;2023-08-20T20:50:05;98921.11;;;27.61;48.41
56825;BME280;42705;50.326;18.772;2023-08-20T20:55:27;98919.05;;;27.49;48.80
56825;BME280;42705;50.326;18.772;2023-08-20T21:00:48;98915.27;;;27.38;49.20
56825;BME280;42705;50.326;18.772;2023-08-20T21:06:09;98916.20;;;27.30;49.58
56825;BME280;42705;50.326;18.772;2023-08-20T21:11:30;98915.20;;;27.21;49.90
56825;BME280;42705;50.326;18.772;2023-08-20T21:16:51;98917.59;;;27.13;49.81
56825;BME280;42705;50.326;18.772;2023-08-20T21:22:14;98919.47;;;27.06;50.40
56825;BME280;42705;50.326;18.772;2023-08-20T21:27:35;98926.99;;;26.97;50.79
56825;BME280;42705;50.326;18.772;2023-08-20T21:32:56;98931.87;;;26.89;51.32
56825;BME280;42705;50.326;18.772;2023-08-20T21:38:18;98930.21;;;26.78;51.86
56825;BME280;42705;50.326;18.772;2023-08-20T21:43:39;98934.85;;;26.69;52.22
56825;BME280;42705;50.326;18.772;2023-08-20T21:49:01;98938.81;;;26.59;52.62
56825;BME280;42705;50.326;18.772;2023-08-20T21:54:23;98943.70;;;26.50;53.04
56825;BME280;42705;50.326;18.772;2023-08-20T21:59:49;98946.70;;;26.40;53.45
56825;BME280;42705;50.326;18.772;2023-08-20T22:10:33;98957.39;;;26.36;53.65
56825;BME280;42705;50.326;18.772;2023-08-20T22:15:56;98956.29;;;26.35;53.67
56825;BME280;42705;50.326;18.772;2023-08-20T22:21:17;98963.92;;;26.33;53.53
56825;BME280;42705;50.326;18.772;2023-08-20T22:26:40;98967.27;;;26.29;53.20
56825;BME280;42705;50.326;18.772;2023-08-20T22:32:01;98965.27;;;26.26;53.56
56825;BME280;42705;50.326;18.772;2023-08-20T22:37:22;98961.70;;;26.21;53.98
56825;BME280;42705;50.326;18.772;2023-08-20T22:42:46;98968.46;;;26.13;54.50
56825;BME280;42705;50.326;18.772;2023-08-20T22:48:07;98976.98;;;26.04;54.54
56825;BME280;42705;50.326;18.772;2023-08-20T22:53:29;98976.17;;;25.96;54.91
56825;BME280;42705;50.326;18.772;2023-08-20T22:58:50;98970.71;;;25.88;55.54
56825;BME280;42705;50.326;18.772;2023-08-20T23:04:12;98960.33;;;25.83;56.02
56825;BME280;42705;50.326;18.772;2023-08-20T23:09:33;98950.25;;;25.79;56.48
56825;BME280;42705;50.326;18.772;2023-08-20T23:14:55;98951.39;;;25.73;56.53
56825;BME280;42705;50.326;18.772;2023-08-20T23:20:16;98955.95;;;25.68;56.83
56825;BME280;42705;50.326;18.772;2023-08-20T23:25:37;98961.64;;;25.59;57.08
56825;BME280;42705;50.326;18.772;2023-08-20T23:30:58;98959.11;;;25.56;57.23
56825;BME280;42705;50.326;18.772;2023-08-20T23:36:19;98956.05;;;25.51;57.25
56825;BME280;42705;50.326;18.772;2023-08-20T23:41:43;98952.67;;;25.46;57.41
56825;BME280;42705;50.326;18.772;2023-08-20T23:47:05;98945.73;;;25.39;57.50
56825;BME280;42705;50.326;18.772;2023-08-20T23:52:26;98946.30;;;25.33;57.64
56825;BME280;42705;50.326;18.772;2023-08-20T23:57:47;98948.84;;;25.26;57.75
